createdAt,value
2022-08-19T00:02:26.004Z,0.20
2022-08-19T00:04:56.425Z,0.20
2022-08-19T00:07:28.411Z,0.20
2022-08-19T00:09:59.361Z,0.20
2022-08-19T00:12:30.060Z,0.20
2022-08-19T00:15:00.537Z,0.20
2022-08-19T00:17:30.948Z,0.20
2022-08-19T00:20:01.843Z,0.20
2022-08-19T00:22:34.881Z,0.20
2022-08-19T00:25:05.575Z,0.20
2022-08-19T00:27:38.086Z,0.20
2022-08-19T00:30:12.029Z,0.20
2022-08-19T00:32:42.763Z,0.20
2022-08-19T00:35:13.629Z,0.20
2022-08-19T00:37:46.535Z,0.20
2022-08-19T00:40:17.355Z,0.20
2022-08-19T00:42:48.125Z,0.20
2022-08-19T00:45:20.647Z,0.20
2022-08-19T00:47:50.970Z,0.20
2022-08-19T00:50:24.689Z,0.20
2022-08-19T00:52:56.795Z,0.20
2022-08-19T00:55:31.554Z,0.20
2022-08-19T01:03:10.633Z,0.30
2022-08-19T01:05:42.906Z,0.20
2022-08-19T01:08:15.513Z,0.20
2022-08-19T01:10:49.683Z,0.20
2022-08-19T01:13:22.444Z,0.20
2022-08-19T01:15:58.626Z,0.30
2022-08-19T01:18:31.799Z,0.20
2022-08-19T01:21:09.429Z,0.20
2022-08-19T01:23:50.714Z,0.20
2022-08-19T01:26:24.737Z,0.20
2022-08-19T01:29:00.716Z,0.20
2022-08-19T01:31:34.385Z,0.20
2022-08-19T01:34:05.470Z,0.20
2022-08-19T01:36:39.373Z,0.23
2022-08-19T01:39:14.579Z,0.30
2022-08-19T01:41:45.758Z,0.30
2022-08-19T01:44:18.345Z,0.20
2022-08-19T01:46:52.121Z,0.20
2022-08-19T01:49:24.684Z,0.20
2022-08-19T01:51:55.475Z,0.20
2022-08-19T01:54:28.149Z,0.30
2022-08-19T01:57:03.527Z,0.30
2022-08-19T01:59:35.338Z,0.20
2022-08-19T02:02:08.539Z,0.20
2022-08-19T02:04:40.174Z,0.23
2022-08-19T02:07:11.228Z,0.20
2022-08-19T02:09:43.310Z,0.20
2022-08-19T02:12:13.776Z,0.30
2022-08-19T02:14:48.797Z,0.30
2022-08-19T02:17:19.959Z,0.30
2022-08-19T02:19:50.709Z,0.30
2022-08-19T02:22:21.630Z,0.30
2022-08-19T02:24:53.379Z,0.27
2022-08-19T02:27:23.682Z,0.30
2022-08-19T02:29:55.024Z,0.30
2022-08-19T02:32:25.402Z,0.30
2022-08-19T02:34:55.697Z,0.30
2022-08-19T02:37:43.047Z,0.30
2022-08-19T02:40:15.367Z,0.30
2022-08-19T02:42:45.469Z,0.30
2022-08-19T02:45:16.261Z,0.30
2022-08-19T02:47:46.773Z,0.30
2022-08-19T02:50:17.103Z,0.30
2022-08-19T02:52:47.355Z,0.20
2022-08-19T02:55:19.387Z,0.20
2022-08-19T02:57:49.598Z,0.20
2022-08-19T03:00:19.832Z,0.30
2022-08-19T03:02:50.362Z,0.30
2022-08-19T03:05:20.622Z,0.30
2022-08-19T03:08:13.890Z,0.30
2022-08-19T03:10:47.880Z,0.30
2022-08-19T03:13:19.481Z,0.30
2022-08-19T03:15:51.260Z,0.30
2022-08-19T03:18:23.173Z,0.30
2022-08-19T03:20:56.145Z,0.30
2022-08-19T03:23:27.375Z,0.30
2022-08-19T03:26:16.183Z,0.30
2022-08-19T03:28:57.709Z,0.30
2022-08-19T03:31:44.795Z,0.30
2022-08-19T03:34:23.113Z,0.30
2022-08-19T03:36:53.357Z,0.30
2022-08-19T03:39:23.777Z,0.30
2022-08-19T03:42:31.844Z,0.30
2022-08-19T03:44:48.979Z,0.30
2022-08-19T03:47:19.219Z,0.30
2022-08-19T03:49:49.473Z,0.30
2022-08-19T03:52:19.712Z,0.30
2022-08-19T03:54:49.781Z,0.30
2022-08-19T03:57:21.426Z,0.30
2022-08-19T03:59:55.377Z,0.30
2022-08-19T04:02:34.400Z,0.27
2022-08-19T04:05:04.629Z,0.20
2022-08-19T04:07:34.634Z,0.30
2022-08-19T04:10:05.068Z,0.30
2022-08-19T04:12:37.508Z,0.30
2022-08-19T04:15:08.222Z,0.30
2022-08-19T04:17:38.591Z,0.30
2022-08-19T04:20:09.425Z,0.30
2022-08-19T04:22:39.836Z,0.30
2022-08-19T04:25:10.413Z,0.30
2022-08-19T04:27:48.174Z,0.30
2022-08-19T04:30:19.753Z,0.30
2022-08-19T04:32:49.790Z,0.30
2022-08-19T04:35:23.161Z,0.30
2022-08-19T04:37:55.236Z,0.30
2022-08-19T04:40:42.334Z,0.30
2022-08-19T04:43:17.132Z,0.30
2022-08-19T04:45:47.977Z,0.30
2022-08-19T04:48:26.188Z,0.30
2022-08-19T04:50:59.413Z,0.30
2022-08-19T04:53:37.694Z,0.30
2022-08-19T04:56:11.400Z,0.30
2022-08-19T04:58:45.007Z,0.30
2022-08-19T05:01:16.760Z,0.30
2022-08-19T05:03:47.113Z,0.30
2022-08-19T05:06:19.518Z,0.30
2022-08-19T05:08:50.409Z,0.30
2022-08-19T05:11:26.384Z,0.30
2022-08-19T05:13:59.307Z,0.30
2022-08-19T05:16:30.630Z,0.30
2022-08-19T05:19:17.892Z,0.30
2022-08-19T05:22:05.505Z,0.30
2022-08-19T05:24:41.340Z,0.30
2022-08-19T05:27:21.646Z,0.30
2022-08-19T05:29:53.243Z,0.30
2022-08-19T05:32:23.366Z,0.30
2022-08-19T05:34:53.412Z,0.30
2022-08-19T05:37:23.862Z,0.30
2022-08-19T05:39:53.902Z,0.40
2022-08-19T05:42:24.843Z,0.30
2022-08-19T05:44:57.650Z,0.33
2022-08-19T05:47:28.003Z,0.30
2022-08-19T05:49:58.145Z,0.30
2022-08-19T05:52:29.914Z,0.30
2022-08-19T05:55:01.310Z,0.30
2022-08-19T05:57:32.099Z,0.30
2022-08-19T06:00:09.401Z,0.30
2022-08-19T06:02:39.621Z,0.30
2022-08-19T06:05:11.297Z,0.30
2022-08-19T06:07:42.506Z,0.30
2022-08-19T06:10:14.499Z,0.40
2022-08-19T06:12:44.618Z,0.30
2022-08-19T06:15:17.675Z,0.30
2022-08-19T06:17:48.076Z,0.30
2022-08-19T06:20:39.754Z,0.30
2022-08-19T06:23:10.409Z,0.40
2022-08-19T06:25:46.270Z,0.40
2022-08-19T06:28:16.786Z,0.30
2022-08-19T06:30:48.955Z,0.40
2022-08-19T06:33:19.035Z,0.40
2022-08-19T06:35:49.343Z,0.37
2022-08-19T06:38:19.855Z,0.40
2022-08-19T06:40:49.889Z,0.20
2022-08-19T06:43:19.961Z,0.30
2022-08-19T06:45:54.016Z,0.30
2022-08-19T06:48:24.241Z,0.30
2022-08-19T06:50:56.299Z,0.30
2022-08-19T06:53:26.399Z,0.30
2022-08-19T06:56:01.817Z,0.30
2022-08-19T06:58:35.011Z,0.30
2022-08-19T07:01:09.213Z,0.40
2022-08-19T07:03:40.887Z,0.30
2022-08-19T07:06:26.646Z,0.33
2022-08-19T07:09:03.742Z,0.30
2022-08-19T07:11:34.254Z,0.30
2022-08-19T07:14:04.836Z,0.30
2022-08-19T07:16:37.352Z,0.30
2022-08-19T07:19:15.716Z,0.30
2022-08-19T07:21:46.488Z,0.40
2022-08-19T07:24:16.955Z,0.40
2022-08-19T07:26:51.586Z,0.30
2022-08-19T07:29:25.837Z,0.30
2022-08-19T07:32:00.957Z,0.30
2022-08-19T07:34:32.620Z,0.20
2022-08-19T07:37:02.638Z,0.40
2022-08-19T07:39:35.560Z,0.30
2022-08-19T07:42:09.430Z,0.30
2022-08-19T07:47:47.882Z,0.40
2022-08-19T07:50:02.387Z,0.30
2022-08-19T07:52:32.602Z,0.30
2022-08-19T07:55:05.433Z,0.30
2022-08-19T07:57:35.559Z,0.30
2022-08-19T08:00:07.193Z,0.30
2022-08-19T08:02:39.664Z,0.30
2022-08-19T08:05:27.165Z,0.40
2022-08-19T08:08:14.163Z,0.30
2022-08-19T08:10:44.423Z,0.40
2022-08-19T08:13:23.029Z,0.30
2022-08-19T08:15:53.315Z,0.40
2022-08-19T08:18:30.302Z,0.30
2022-08-19T08:21:02.485Z,0.30
2022-08-19T08:23:33.177Z,0.40
2022-08-19T08:26:03.992Z,0.30
2022-08-19T08:28:34.264Z,0.40
2022-08-19T08:31:09.673Z,0.40
2022-08-19T08:33:43.373Z,0.40
2022-08-19T08:36:14.955Z,0.30
2022-08-19T08:38:46.989Z,0.40
2022-08-19T08:41:25.967Z,0.30
2022-08-19T08:43:57.041Z,0.33
2022-08-19T08:46:33.581Z,0.30
2022-08-19T08:49:13.671Z,0.40
2022-08-19T08:51:59.255Z,0.40
2022-08-19T08:54:35.591Z,0.37
2022-08-19T08:57:09.827Z,0.30
2022-08-19T08:59:42.975Z,0.40
2022-08-19T09:02:13.431Z,0.40
2022-08-19T09:04:45.183Z,0.30
2022-08-19T09:07:34.977Z,0.30
2022-08-19T09:10:13.514Z,0.40
2022-08-19T09:12:51.665Z,0.30
2022-08-19T09:15:29.113Z,0.40
2022-08-19T09:18:07.127Z,0.33
2022-08-19T09:20:41.335Z,0.40
2022-08-19T09:23:13.917Z,0.30
2022-08-19T09:25:44.120Z,0.40
2022-08-19T09:28:22.046Z,0.40
2022-08-19T09:30:54.978Z,0.30
2022-08-19T09:33:25.295Z,0.37
2022-08-19T09:36:08.600Z,0.33
2022-08-19T09:38:43.575Z,0.30
2022-08-19T09:41:16.896Z,0.30
2022-08-19T09:43:51.159Z,0.40
2022-08-19T09:46:24.000Z,0.40
2022-08-19T09:48:54.835Z,0.37
2022-08-19T09:51:29.991Z,0.30
2022-08-19T09:54:04.907Z,0.30
2022-08-19T09:56:35.632Z,0.40
2022-08-19T09:59:07.185Z,0.40
2022-08-19T10:01:37.299Z,0.40
2022-08-19T10:04:19.718Z,0.30
2022-08-19T10:06:53.603Z,0.30
2022-08-19T10:09:26.279Z,0.40
2022-08-19T10:12:04.962Z,0.40
2022-08-19T10:14:36.502Z,0.30
2022-08-19T10:17:19.859Z,0.40
2022-08-19T10:19:55.298Z,0.30
2022-08-19T10:22:27.954Z,0.30
2022-08-19T10:24:58.147Z,0.30
2022-08-19T10:27:28.612Z,0.40
2022-08-19T10:30:02.901Z,0.30
2022-08-19T10:32:34.437Z,0.37
2022-08-19T10:35:07.537Z,0.30
2022-08-19T10:37:44.946Z,0.30
2022-08-19T10:40:28.395Z,0.40
2022-08-19T10:42:59.068Z,0.40
2022-08-19T10:45:29.187Z,0.40
2022-08-19T10:47:59.990Z,0.30
2022-08-19T10:50:47.179Z,0.40
2022-08-19T10:53:19.540Z,0.37
2022-08-19T10:56:07.472Z,0.30
2022-08-19T10:58:37.599Z,0.40
2022-08-19T11:21:18.590Z,0.30
2022-08-19T11:34:01.316Z,0.30
2022-08-19T11:36:32.971Z,0.30
2022-08-19T11:39:05.832Z,0.30
2022-08-19T11:41:36.424Z,0.30
2022-08-19T11:44:09.262Z,0.30
2022-08-19T11:46:40.651Z,0.30
2022-08-19T11:49:13.999Z,0.30
2022-08-19T11:51:45.129Z,0.30
2022-08-19T11:56:50.735Z,0.30
2022-08-19T11:59:20.699Z,0.30
2022-08-19T12:01:50.900Z,0.30
2022-08-19T12:04:20.881Z,0.30
2022-08-19T12:14:29.540Z,0.30
2022-08-19T12:16:59.692Z,0.30
2022-08-19T12:19:29.976Z,0.30
2022-08-19T12:22:04.806Z,0.30
2022-08-19T23:42:48.421Z,0.10
2022-08-19T23:45:23.700Z,0.10
2022-08-19T23:47:57.542Z,0.13
2022-08-19T23:50:29.459Z,0.10
2022-08-19T23:53:02.378Z,0.10
2022-08-19T23:55:35.623Z,0.10
2022-08-19T23:58:08.541Z,0.10
